Alafaya, FL

1:29 AM EDT on September 22, 2014 (GMT -0400)
UCF Area / WUCF-FM | Change Station
CLOSE
Current Station
Personal Weather Station
Location: Orlando, FL
Elevation: 85 ft
Nearby Weather Stations

Elev 85 ft 28.60 °N, 81.20 °W | Updated 1 second ago

Mostly Cloudy
Mostly Cloudy
77.2 °F
Feels Like 79 °F
N
0.0
Wind Variable Wind from SE
Gusts 0.0 mph

Today
High -- | Low -- °F
--% Chance of Precip.
Yesterday
High -- | Low -- °F
Precip. -- in
7:13 AM 7:21 PM
Waning Crescent, 4% visible
Pressure 30.05 in
Visibility 10.0 miles
Clouds Mostly Cloudy 5000 ft
Overcast 7000 ft
Heat Index 79 °F
Dew Point 75 °F
Humidity 93%
Rainfall 0.00 in
Snow Depth Not available.
UV 0 out of 12
Pollen 6.70 out of 12
Ozone Good
PM2.5 Good
Flu Activity Not available.
METAR KORL 220453Z AUTO 00000KT 10SM BKN050 OVC070 26/23 A3004 RMK AO2 SLP174 T02560228 403170222

More Conditions Fewer Conditions

Pressure 30.05 in
Visibility 10.0 miles
Clouds Mostly Cloudy 5000 ft
Overcast 7000 ft
Heat Index 79 °F
Dew Point 75 °F
Humidity 93%
Rainfall 0.00 in
Snow Depth Not available.
UV 0 out of 12
Pollen 6.70 out of 12
Ozone Good
PM2.5 Good
Flu Activity Not available.
METAR KORL 220453Z AUTO 00000KT 10SM BKN050 OVC070 26/23 A3004 RMK AO2 SLP174 T02560228 403170222

More Conditions Fewer Conditions

Nowcast | as of 12:01 am EDT on September 22, 2014

A stationary boundary will remain in the vicinity through the overnight hours...which in combination with partly cloudy skies and abundant low level moisture will promote patchy fog development toward sunrise Monday. The best coverage of fog is expected to develop in the vicinity of the front across southern Orange... northern Osceola and southern Brevard counties. Additional details...including graphics are available online at: http://www.Srh.NOAA.Gov/mlb/blog.Php

×

10-Day Weather Forecast

Almanac

Astronomy

Sep. 22, 2014 Rise Set
Actual Time 7:13 AM EDT 7:21 PM EDT
Civil Twilight 6:49 AM EDT 7:44 PM EDT
Nautical Twilight 6:22 AM EDT 8:12 PM EDT
Astronomical Twilight 5:54 AM EDT 8:39 PM EDT
Moon 5:46 AM EDT 6:25 PM EDT
Length of Visible Light 12h 55m
Length of Day
12h 08m
Tomorrow will be 1m 42s shorter.
Waning Crescent, 4% of the Moon is Illuminated
Today
Waning Crescent
Sep 24
New
Oct 1
First Quarter
Oct 8
Full
Oct 15
Last Quarter

Today's Extremes

State Highs State Lows

Community

WunderPhotos

Upload Photos

1,755,391 photos uploaded!

Nearby

Air Quality

  Air Quality AQ Index Pollutant
Yesterday Good
OZONE
Yesterday Good
PM2.5
Current Good
PM2.5
Current Good
OZONE
Sunday Good
OZONE
Monday Good
OZONE

Snow Depth

Station Depth Elevation
No new snow has been reported.

Earthquake Activity

City Distance Mag. Time & Date
No recent earthquake activity has been reported nearby.
Minimum magnitude displayed is 2.5.

Coastal Water Temperatures

Place Temperature
Trident Pier, FL 84.0 °F
Fort Myers, FL 84.0 °F
Lake Worth, FL 84.9 °F

Nearby Weather Stations